Home
Edições Anteriores
Rio de Janeiro - 
10 de Dezembro de 2016
Etapa Final 2016 - 
Praia de Copacabana

Resultados: Super Challenge Geral Masculino

Relatório Geral – SUPER CHALLENGE – Masculino
Coloc. Num. Nome Idade Sexo Fx.Et. Cl.Fx.Et. Tempo Equipe
1 6034 ARTHUR RIZZO DUARTE 16 M M1416 02:19:47 VIDATIVA/SPORT CLUB JUIZ DE FORA/VEMNADA
2 6131 VINICIUS PEREIRA DE SOUZA 21 M M2024 02:20:06 NATAÇÃO NO MAR COPACABANA
3 6055 ANDRE OLIVEIRA CASTELUCIO 39 M M3539 02:22:40 NAVEGANTES
4 6154 TIAGO NOBUYUKI SATO 34 M M3034 1 02:27:51 JACANOÁ/GREENS/AÇAÍ BRASIL/F.MOLINA
5 6085 ARMANDO LOPES 30 M M3034 2 02:30:36 VEM NADAR
6 6122 BRUNNO SANTORO RODRIGUES 22 M M2024 1 02:31:23 SESI DF
7 6112 FREDERICO RESENDE TEIXEIRA 33 M M3034 3 02:31:38 FRED TEIXEIRA TEAM
8 6014 EDUARDO COSTA CAMARA LIMA 29 M M2529 1 02:33:42 SEQUELADOS / DODGER FITNESS
9 6038 FELIPE PAQUETE 37 M M3539 1 02:34:25 CLUBE CURITIBANO
10 6084 FERNANDO DOLABELLA 43 M M4044 1 02:34:48
11 6019 FABIO RUSSOMANO 56 M M5559 1 02:37:14 RIO SPORT
12 6090 ALEX BARREIRA 36 M M3539 2 02:38:02 FIJ AQUATIC TEAM
13 6027 DANIEL TEODORO SANTOS TEIXEIRA 42 M M4044 2 02:38:15 TEO ESPORTES
14 6070 IBERE DE ASSIS JUNIOR 45 M M4549 1 02:39:52 CLUBE CURITIBA
15 6130 PAULO ROBERTO CIMA JUNIOR 49 M M4549 2 02:39:54 EQUIPE AQUA RIO
16 6081 BRUNO CLARK MORAES DE ALMEIDA 38 M M3539 3 02:40:09 RIO SAUDE
17 6017 ALEXANDRE NAOUM VALLE 34 M M3034 4 02:41:00 CIA ATHLETICA / UM10 / JACANOA
18 6007 CESAR AUGUSTO NETTO FERRAZ DE CARVALHO 48 M M4549 3 02:42:51 CASAS LEALTEX
19 6040 LUIS ROMANO FREIRE FIGUEIRA 16 M M1416 1 02:44:46 LOPOTRAS
20 6005 RAFAEL PAIM CUNHA SANTOS 40 M M4044 3 02:46:23 LL GLADIADORES
21 6127 DELLANO BARRETO DE MELLO 28 M M2529 2 02:47:40 EQUIPE AQUA RIO
22 6069 PAULO CESAR PEREIRA DA SILVA 63 M M6064 1 02:48:20 COMPANHIA AQUÁTICA
23 6119 BERNARDO TILLMANN 34 M M3034 5 02:48:28 TRIBUS
24 6111 ANDRE FARACO DE ANDRADE ALVES 20 M M2024 2 02:49:09 GP COACHING
25 6031 RICARDO LIMA 37 M M3539 4 02:49:40 PAJUÇARA AGUAS ABERTAS MACEIO-AL
26 6109 ANDRE LUIZ WOITECH HECKSHER 48 M M4549 4 02:49:46 WQL/TOP/OTOSUL
27 6021 RICARDO SANCHEZ 48 M M4549 5 02:50:12 EC LL GLADIADORES
28 6114 LEONARDO FELTZ 17 M M1719 1 02:50:14 SEST SENAT – CARIACICA – ES
29 6044 RAFAEL LEVY MARTINS 31 M M3034 6 02:50:42 CIA ATHLETICA SÃO JOSÉ DOS CAMPOS
30 6051 TIAGO RAMALHO TOMEO 34 M M3034 7 02:54:01 MARCA DÁGUA
31 6010 CACO SAWCZUK 46 M M4549 6 02:54:35 SEU GUIA ECOTURISMO
32 6104 RICARDO PAN NEVES 36 M M3539 5 02:55:01 VEM NADAR
33 6059 JOAO BOUERI NETO 41 M M4044 4 02:55:32 RIO SAUDE
34 6100 LEONARDO ESTEVES NATAL 34 M M3034 8 02:55:35 NAVEGANTES
35 6013 LIBANIO RIBEIRO FELIZARDO 32 M M3034 9 02:56:17 CONEXAOMB
36 6049 RICARDO SHINITI KAWAMOTO 45 M M4549 7 02:57:32 CIA AQUÁTICA
37 6060 PAULO ROBERTO AMARAL R DA SILVA 54 M M5054 1 02:57:51 PAULO AMARAL
38 6089 HUMBERTO CESAR MENESCAL SAMPAIO 65 M M6569 1 02:57:58 EC LL GLADIADORES / MAGIA VERDE
39 6133 FRED. AMARAL 47 M M4549 8 02:58:15 ACADEMIA KONNEN PT E RJ
40 6139 TIAGO DE BITTENCOURT ROSSI 34 M M3034 10 02:58:27 RENASCER DAS ÁGUAS/TIJUCA TÊNIS CLUBE
41 6116 LEONARDO BORBA PESSOA DO NASCIMENTO 37 M M3539 6 02:59:33 AQUAVIDA CENTER
42 6016 TOMAS PEREIRA JORGE DA CUNHA JUNIOR 31 M M3034 11 02:59:44 CLUBE DOS MACACOS
43 6006 VITOR FORTUNATO BRACONI DE MOURA 31 M M3034 12 02:59:53
44 6135 IVAN NOGUEIRA JUNIOR 41 M M4044 5 03:00:03 ACADEMIA SAÚDE 2000
45 6132 MARCELO FIGUEIRINHO 47 M M4549 9 03:01:02 ACADEMIA KONNEN PT E RJ
46 6118 PAULO VINICIUS VILAR CHRISTOFARO 36 M M3539 7 03:01:15 ESCOLA DE NATAÇÃO TUBARÃO
47 6068 LUIS GUSTAVO RAMOS POVOA 38 M M3539 8 03:01:57 TOSCANO
48 6018 MARCELO ALVES RODRIGUES 28 M M2529 3 03:02:11 TRIBUS ADIVENTURE
49 6020 OCTAVIO CUNHA 41 M M4044 6 03:02:50 T4SPORTS
50 6102 MAURICIO BERNHARDT MACIEL 38 M M3539 9 03:03:13 VEM NADAR
51 6036 NEWTON SILVA JUNIOR 38 M M3539 10 03:03:37 BODYTECH
52 6064 GUILHERME BATISTA BORTOLETO MARRONI 32 M M3034 13 03:04:00
53 6029 MIGUEL GUTIERREZ VARELA 35 M M3539 11 03:05:42 ALASKAAIR
54 6160 TIMOTHY PERRY 54 M M5054 2 03:06:02 VEM NADAR
55 6052 LEONARDO PERRONE POERNER 39 M M3539 12 03:07:31 TOSCANO
56 6155 LEONARDO DE AZEVEDO SAAD 39 M M3539 13 03:07:57 GLADIADORES
57 6041 CRISTIANO CARVALHO ALVES 42 M M4044 7 03:08:17 OTREINO
58 6043 JESSE ALEXANDRE PRINCE NELSON 31 M M3034 14 03:08:23 T4 SPORTS
59 6091 LENILDO LOPES VIEIRA FILHO 48 M M4549 10 03:08:57 ESCOLA DO MAR – RIO DAS OSTRAS
60 6157 ROGÉRIO OSÓRIO DIAS 40 M M4044 8 03:09:30 VEM NADAR
61 6009 MARCIO PEREIRA ROSEIRA 41 M M4044 9 03:11:10 2º GRUPAMENTO MARÍTIMO CBMERJ
62 6095 RODRIGO ALEXANDRE DE BARROS BRAZ E BARROS 39 M M3539 14 03:15:42 JBARROS
63 6101 VITOR AUGUSTO XAVIER DE BRITO 49 M M4549 11 03:15:59 EC LL GLADIADORES
64 6045 CARLOS EDUARDO MONTEIRO 45 M M4549 12 03:17:01 CLUBE NAVAL PIRAQUÊ / ECLL GLADIADORES
65 6121 VITOR FELPE DE AZEVEDO 36 M M3539 15 03:18:33 CLUBE FEDERAL/ CADES
66 6067 MATHEUS APOLINARIO MICHELON 35 M M3539 16 03:18:50
67 6015 EDSON MAISONNETTE JUNIOR 37 M M3539 17 03:21:10 EZK TEAM
68 6137 WASHINGTON BLANCO LIMA NETTO 57 M M5559 2 03:21:30 SEMPRE NAGUA
69 6022 ERIK CONOLLY DE CARVALHO 47 M M4549 13 03:21:41 EC LL GLADIADORES
70 6061 VICTOR PONTES DA SILVA 34 M M3034 15 03:22:45 SURVIVOR
71 6063 ANDERSON LEMOS VAZ 32 M M3034 16 03:25:12 SURVIVOR
72 6153 PHILLIP YOUNES LUIZ DE AZEVEDO 27 M M2529 4 03:25:20 MORMAII
73 6011 CAIO HERCULANO AMIM 33 M M3034 17 03:26:47 FRED TEIXEIRA TEAM
74 6108 JENS SCHUNKEGALLEY 48 M M4549 14 03:27:59
75 6106 HELIO FRANCA FILHO 57 M M5559 3 03:28:19 LL GLADIADORES
76 6110 RAFAEL ARRAIS CORREA 26 M M2529 5 03:29:04 DELUKA / INSPER
77 6050 JOAQUIM PRUDENCIO LEAO 62 M M6064 2 03:34:28 LL GLADIADORES
78 6008 FELIPE SAUBEL MARDINI CANTIERI 28 M M2529 6 03:35:27 VM300
79 6140 ALEXANDRE ASSUMPÇÃO DE SOUZA 40 M M4044 10 03:37:52 TUBARÃO NATAÇÃO
80 6169 CARLOS ALBERTO SILVA DE ASSIS -963 M M0013 1 03:39:30 JATAGUÁ
81 6171 JULIUS SOBRAL VANNIER 50 M M5054 3 03:41:24
82 6093 MARCOS MUNHOZ REFFATTI 29 M M2529 7 03:42:36 LIGA2 RS / CBX CORRETORA DE SEGUROS
83 6143 LEONARDO BRANT 47 M M4549 15 03:43:30 LUIZ LIMA GLADIADORES
84 6142 FRANCISCO JOSÉ COSTA CARNEIRO 51 M M5054 4 03:44:10 EQUIPE AQUA RIO
85 6156 FÁBIO ANDRÉ LOBATO DIAS 40 M M4044 11 03:44:20 SEMPRE NAGUA
86 6134 FELIPE COTIJO 29 M M2529 8 03:44:40 COMPANHIA ATHLETICA
87 6004 ANDRE ZENITO 28 M M2529 9 03:45:32 SAEZ XTREME
88 6126 JOÃO LUÍS ALVES MENDES 56 M M5559 4 03:46:04
89 6030 ROGERIO FARIA DE SOUZA 43 M M4044 12 03:46:30 NAVEGANTES
90 6145 RENEE CARLOS MARQUES 39 M M3539 18 03:46:52 FREAK SWIMMERS – CEMS
91 6047 EDSON VIANNA 54 M M5054 5 03:50:11 ESCOLA DO MAR
92 6025 MURILLO RODRIGUES ORLANDI 26 M M2529 10 03:51:25 GUSTAVO BORGES
93 6035 SOMULO NOGUEIRA MAFRA 37 M M3539 19 03:53:05 PEDRO NATALI MAFRA TEAM
94 6107 MARCIO DA SILVA FIGUEIRA 50 M M5054 6 03:56:44
95 6128 CLAUDIO HENRIQUE ARAÚJO VIEIRA 31 M M3034 18 03:57:28 EQUIPE AQUA RIO
96 6012 JOAO GABRIEL DANON TAVARES 28 M M2529 11 04:01:46
97 6071 AUGUSTO DUTRA 47 M M4549 16 04:05:41
98 6096 DOUGLAS VIDAL DOMINGOS 17 M M1719 2 04:05:59 EQUIPE LISBOA
99 6141 JORGE CAMILO LEONARDO 29 M M2529 12 04:06:18 #VEMNADAR
100 6037 JARBAS LEAL 57 M M5559 5 04:06:24 BARRACUDA
101 6003 MARCIO TESCH 72 M M7074 1 04:06:35 ALMEC ASSESSORIA EMPRESARIAL E ESPORTIVA
102 6152 ROBERTO PEREIRA RODRIGUES 58 M M5559 6 04:12:42 LL GLADIADORES
103 6098 JOAO CARLOSMOREIRA PENNA FILHO 53 M M5054 7 04:15:30 LL GLADIADORES
104 6002 RENATO DE BRITO MOREIRA DE ANDRADE 37 M M3539 20 04:16:55 ESQUILO SPORTS
105 6057 JOAO CHRISTIANO BORGES DE MAGALHAES LOPES 46 M M4549 17 04:18:55 TUBAROES DAS MONTANHAS
106 6120 RICARDO CARVALHO PAULO JUNIOR 22 M M2024 3 04:28:45 LIBANES
107 6172 LUIZ FERNANDO FURTADO DE AMORIM 30 M M3034 19 04:31:35 EQUIPE AQUA RIO
108 6099 ALEX LUIZ DE LIMA 42 M M4044 13 04:32:46 FOFOS
109 6042 JAREK ROGOWSKI 42 M M4044 14 04:33:14 CLUBE FEDERAL RJ
110 6113 ADERSON DE OLIVEIRA CAROLINO 52 M M5054 8 04:40:39 COMERCIAL ESPORTE CLUBE/A POSITIVO
111 6039 ADOLPHO CARVALHO 27 M M2529 13 04:51:28 HARDCORE
112 6024 CESAR P H DE CASTRO 52 M M5054 9 04:52:39 ATIVIDADE360
Patrocínio
Apoio
Apoio Institucional
Parceria Esportiva
Rádio Oficial
Hidratação Oficial
Água Mineral Oficial
Apoio Hidratação
Parceria de Mídia
Realização
Promoção
A Gente Apoia